Time;durP1;ratioP1;P1;durP2;ratioP2;P2;SDS_P1;SDS_P2;PMS_P1;PMS_P2;Temp;Humidity;BMP_temperature;BMP_pressure;BME280_temperature;BME280_humidity;BME280_pressure;Samples;Min_cycle;Max_cycle;Signal;HPM_P1;HPM_P2
2021/09/04 00:02:53;;;;;;;0.30;0.20;;;22.00;99.90;;;;;;20703130;23;20242;-64
2021/09/04 00:12:57;;;;;;;0.20;0.20;;;22.00;99.90;;;;;;20694175;28;20202;-66
2021/09/04 00:23:02;;;;;;;0.23;0.10;;;21.80;99.90;;;;;;20691290;28;20231;-64
2021/09/04 00:33:06;;;;;;;0.37;0.30;;;21.60;99.90;;;;;;20698997;28;20195;-64
2021/09/04 00:43:11;;;;;;;1.03;0.33;;;21.80;99.90;;;;;;20707297;28;20707;-64
2021/09/04 00:53:15;;;;;;;0.53;0.33;;;21.80;99.90;;;;;;20706904;28;20583;-65
2021/09/04 01:03:21;;;;;;;0.40;0.20;;;21.90;99.90;;;;;;20671732;28;20598;-64
2021/09/04 01:13:25;;;;;;;1.03;0.80;;;21.80;99.90;;;;;;20620554;28;20207;-66
2021/09/04 01:23:30;;;;;;;0.20;0.10;;;21.80;99.90;;;;;;20603208;28;21015;-66
2021/09/04 01:33:43;;;;;;;1.13;1.03;;;21.80;99.90;;;;;;20621032;28;20202;-65
2021/09/04 01:43:46;;;;;;;0.20;0.20;;;21.80;99.90;;;;;;20615908;28;20213;-66
2021/09/04 01:53:54;;;;;;;0.20;0.10;;;21.60;99.90;;;;;;20622994;28;20215;-65
2021/09/04 02:03:58;;;;;;;0.70;0.50;;;21.40;99.90;;;;;;20659344;28;20230;-65
2021/09/04 02:14:04;;;;;;;0.20;0.10;;;21.20;99.90;;;;;;20704026;28;20237;-67
2021/09/04 02:24:08;;;;;;;0.53;0.20;;;21.00;99.90;;;;;;20700549;28;20198;-65
2021/09/04 02:34:14;;;;;;;3.60;0.80;;;21.10;99.90;;;;;;20702743;28;20564;-67
2021/09/04 02:44:18;;;;;;;0.20;0.20;;;21.00;99.90;;;;;;20700246;28;20206;-65
2021/09/04 02:54:23;;;;;;;0.53;0.37;;;20.70;99.90;;;;;;20697721;28;20229;-65
2021/09/04 03:04:26;;;;;;;0.20;0.10;;;20.60;99.90;;;;;;20717672;23;20262;-73
2021/09/04 03:14:32;;;;;;;0.20;0.10;;;20.60;99.90;;;;;;20700591;28;20226;-72
2021/09/04 03:24:36;;;;;;;0.50;0.40;;;20.80;99.90;;;;;;20697799;28;20226;-72
2021/09/04 03:34:50;;;;;;;1.33;0.97;;;21.00;99.90;;;;;;20696067;28;20231;-73
2021/09/04 03:44:54;;;;;;;1.00;0.90;;;21.20;99.90;;;;;;20696793;28;20199;-71
2021/09/04 03:54:59;;;;;;;2.03;0.97;;;21.30;99.90;;;;;;20695222;28;20237;-72
2021/09/04 04:05:03;;;;;;;3.17;0.83;;;21.30;99.90;;;;;;20692551;23;20234;-65
2021/09/04 04:15:10;;;;;;;0.30;0.10;;;21.50;99.90;;;;;;20712189;28;20595;-63
2021/09/04 04:25:14;;;;;;;14.07;0.57;;;21.50;99.90;;;;;;20707950;28;20667;-65
2021/09/04 04:35:19;;;;;;;0.57;0.50;;;21.70;99.90;;;;;;20681307;28;20218;-65
2021/09/04 04:45:22;;;;;;;0.20;0.10;;;21.80;99.90;;;;;;20710787;28;20206;-64
2021/09/04 04:55:28;;;;;;;0.20;0.10;;;21.80;99.90;;;;;;20690548;28;20222;-65
2021/09/04 05:05:31;;;;;;;0.20;0.10;;;22.00;99.90;;;;;;20707864;28;20709;-64
2021/09/04 05:15:37;;;;;;;0.37;0.37;;;22.00;99.90;;;;;;20690511;28;20294;-64
2021/09/04 05:25:41;;;;;;;0.87;0.77;;;21.90;99.90;;;;;;20705636;28;20199;-65
2021/09/04 05:35:46;;;;;;;4.13;0.63;;;21.80;99.90;;;;;;20648503;28;21170;-65
2021/09/04 05:45:50;;;;;;;0.47;0.30;;;21.80;99.90;;;;;;20624277;28;20200;-65
2021/09/04 05:55:55;;;;;;;0.37;0.37;;;21.80;99.90;;;;;;20624389;28;20224;-64
2021/09/04 06:05:59;;;;;;;0.43;0.30;;;22.00;99.90;;;;;;20656985;28;20230;-64
2021/09/04 06:16:05;;;;;;;0.60;0.43;;;22.30;99.90;;;;;;20702192;28;20230;-62
2021/09/04 06:26:08;;;;;;;0.65;0.65;;;22.50;99.90;;;;;;20702718;28;20260;-64
2021/09/04 06:36:13;;;;;;;0.38;0.28;;;22.70;99.90;;;;;;20711962;28;20584;-65
2021/09/04 06:46:17;;;;;;;1.35;0.73;;;22.80;99.90;;;;;;20699678;28;20281;-65
2021/09/04 06:56:22;;;;;;;0.30;0.20;;;23.20;99.90;;;;;;20698814;28;20226;-65
2021/09/04 07:06:26;;;;;;;0.50;0.30;;;23.30;99.90;;;;;;20681336;28;20218;-65
2021/09/04 07:16:31;;;;;;;0.50;0.50;;;23.40;99.90;;;;;;20697391;28;20234;-65
2021/09/04 07:26:35;;;;;;;0.50;0.40;;;24.30;99.90;;;;;;20698219;28;20195;-63
2021/09/04 07:36:40;;;;;;;0.80;0.43;;;24.40;99.90;;;;;;20648957;28;20636;-64
2021/09/04 07:46:43;;;;;;;0.40;0.38;;;24.20;99.90;;;;;;20611384;28;20195;-68
2021/09/04 07:56:48;;;;;;;0.35;0.32;;;24.20;99.90;;;;;;20611843;28;20222;-66
2021/09/04 08:06:52;;;;;;;1.05;0.43;;;24.50;99.90;;;;;;20614015;28;20234;-65
2021/09/04 08:16:57;;;;;;;0.98;0.60;;;24.80;99.90;;;;;;20612758;28;20242;-67
2021/09/04 08:27:01;;;;;;;1.02;1.02;;;25.10;99.90;;;;;;20595571;28;20208;-66
2021/09/04 08:37:06;;;;;;;0.75;0.50;;;25.40;99.90;;;;;;20612978;28;20223;-66
2021/09/04 08:47:11;;;;;;;0.40;0.40;;;25.30;99.90;;;;;;20613881;28;20267;-67
2021/09/04 08:57:17;;;;;;;0.82;0.47;;;25.60;99.90;;;;;;20604052;28;20227;-68
2021/09/04 09:07:21;;;;;;;2.95;0.73;;;25.80;99.90;;;;;;20692026;28;20227;-67
2021/09/04 09:17:26;;;;;;;2.58;0.70;;;25.70;99.90;;;;;;20704721;28;20222;-68
2021/09/04 09:27:30;;;;;;;0.60;0.50;;;25.50;99.90;;;;;;20709487;28;20494;-66
2021/09/04 09:37:35;;;;;;;1.48;1.20;;;25.60;99.90;;;;;;20655518;28;20318;-65
2021/09/04 09:47:50;;;;;;;0.30;0.30;;;25.90;99.90;;;;;;20572581;28;20657;-67
2021/09/04 09:57:57;;;;;;;0.70;0.55;;;26.40;99.90;;;;;;20550507;28;20246;-66
2021/09/04 10:08:00;;;;;;;2.97;0.88;;;26.80;99.90;;;;;;20609150;28;20306;-67
2021/09/04 10:18:12;;;;;;;3.13;0.93;;;27.40;99.90;;;;;;20618569;28;20223;-70
2021/09/04 10:28:16;;;;;;;0.95;0.60;;;27.50;99.90;;;;;;20618057;28;20204;-68
2021/09/04 10:38:35;;;;;;;1.00;0.32;;;27.60;99.90;;;;;;20583487;28;20699;-68
2021/09/04 10:48:40;;;;;;;0.77;0.60;;;27.60;99.90;;;;;;20616687;28;20281;-68
2021/09/04 10:58:45;;;;;;;1.38;0.75;;;28.40;99.90;;;;;;20617598;28;20895;-66
2021/09/04 11:08:50;;;;;;;1.10;0.70;;;28.90;99.90;;;;;;20693591;28;20234;-66
2021/09/04 11:18:56;;;;;;;1.75;1.00;;;28.90;99.90;;;;;;20696890;28;20230;-67
2021/09/04 11:29:01;;;;;;;1.30;1.00;;;29.40;99.90;;;;;;20694946;28;20205;-67
2021/09/04 11:39:06;;;;;;;1.02;1.02;;;29.80;99.90;;;;;;20677069;28;20223;-67
2021/09/04 11:49:10;;;;;;;0.63;0.57;;;30.20;99.90;;;;;;20693448;28;20656;-67
2021/09/04 11:59:17;;;;;;;3.47;1.60;;;30.30;99.90;;;;;;20693520;28;20322;-68
2021/09/04 12:09:20;;;;;;;2.53;0.60;;;31.00;99.90;;;;;;20696304;28;20218;-66
2021/09/04 12:19:26;;;;;;;0.57;0.57;;;31.00;99.90;;;;;;20689955;28;20226;-67
2021/09/04 12:29:33;;;;;;;1.77;1.42;;;31.30;99.90;;;;;;20698768;28;20198;-68
2021/09/04 12:39:39;;;;;;;5.07;1.85;;;31.00;99.90;;;;;;20686926;28;20333;-67
2021/09/04 12:49:53;;;;;;;1.42;1.25;;;30.70;99.90;;;;;;20707072;28;20233;-67
2021/09/04 13:00:00;;;;;;;1.20;1.10;;;31.00;99.90;;;;;;20707824;28;20337;-67
2021/09/04 13:10:04;;;;;;;0.55;0.55;;;31.60;99.90;;;;;;20704168;28;20281;-68
2021/09/04 13:20:10;;;;;;;3.42;1.48;;;32.10;99.90;;;;;;20688472;28;20238;-67
2021/09/04 13:30:14;;;;;;;2.58;1.80;;;31.70;99.90;;;;;;20683467;28;20194;-67
2021/09/04 13:40:19;;;;;;;6.53;1.00;;;30.70;99.90;;;;;;20624275;28;20654;-67
2021/09/04 13:50:23;;;;;;;1.75;1.50;;;32.90;99.90;;;;;;20620686;28;20195;-66
2021/09/04 14:00:28;;;;;;;1.67;1.13;;;32.60;99.90;;;;;;20629821;28;20226;-66
2021/09/04 14:10:32;;;;;;;5.07;0.85;;;30.80;99.90;;;;;;20702572;28;20219;-67
2021/09/04 14:20:37;;;;;;;2.40;1.30;;;31.90;99.90;;;;;;20701097;28;20751;-67
2021/09/04 14:30:40;;;;;;;6.18;1.30;;;32.50;99.90;;;;;;20698782;28;20252;-66
2021/09/04 14:40:46;;;;;;;2.35;1.20;;;29.90;99.90;;;;;;20696527;28;20226;-67
2021/09/04 14:50:49;;;;;;;2.83;1.95;;;30.30;99.90;;;;;;20697903;28;20190;-65
2021/09/04 15:00:55;;;;;;;2.88;1.30;;;28.90;99.90;;;;;;20695346;28;20645;-65
2021/09/04 15:11:00;;;;;;;1.10;1.00;;;27.90;99.90;;;;;;20696981;28;20306;-65
2021/09/04 15:21:05;;;;;;;1.33;0.75;;;28.00;99.90;;;;;;20693505;28;20254;-67
2021/09/04 15:31:09;;;;;;;1.85;0.82;;;27.90;99.90;;;;;;20692519;28;20206;-66
2021/09/04 15:41:13;;;;;;;0.45;0.45;;;27.60;99.90;;;;;;20613738;28;20223;-65
2021/09/04 15:51:17;;;;;;;1.25;0.85;;;28.30;99.90;;;;;;20612856;28;20286;-65
2021/09/04 16:01:22;;;;;;;0.80;0.77;;;29.00;99.90;;;;;;20626082;28;20246;-66
2021/09/04 16:11:26;;;;;;;0.65;0.45;;;28.60;99.90;;;;;;20692774;28;20191;-65
2021/09/04 16:21:32;;;;;;;0.98;0.85;;;28.40;99.90;;;;;;20691189;28;20328;-67
2021/09/04 16:31:36;;;;;;;1.13;1.05;;;27.80;99.90;;;;;;20691587;28;20606;-67
2021/09/04 16:41:42;;;;;;;1.00;0.90;;;27.60;99.90;;;;;;20691543;28;20254;-64
2021/09/04 16:51:45;;;;;;;1.00;0.70;;;27.50;99.90;;;;;;20673712;28;20210;-64
2021/09/04 17:01:50;;;;;;;1.45;0.85;;;27.00;99.90;;;;;;20692760;28;20609;-65
2021/09/04 17:11:55;;;;;;;1.40;1.30;;;26.80;99.90;;;;;;20690066;28;20542;-66
2021/09/04 17:22:00;;;;;;;4.13;1.23;;;27.10;99.90;;;;;;20687632;28;20345;-66
2021/09/04 17:32:05;;;;;;;5.18;0.50;;;26.80;99.90;;;;;;20697306;28;20196;-66
2021/09/04 17:42:10;;;;;;;0.60;0.60;;;26.70;99.90;;;;;;20631133;28;20286;-66
2021/09/04 17:52:13;;;;;;;1.95;1.35;;;26.60;99.90;;;;;;20621136;28;20498;-66
2021/09/04 18:02:19;;;;;;;3.50;0.85;;;26.30;99.90;;;;;;20645347;28;20349;-67
2021/09/04 18:12:23;;;;;;;1.52;0.70;;;26.10;99.90;;;;;;20699952;28;20544;-67
2021/09/04 18:22:29;;;;;;;1.30;1.20;;;25.80;99.90;;;;;;20683778;28;20254;-67
2021/09/04 18:32:32;;;;;;;1.10;0.63;;;25.70;99.90;;;;;;20697321;28;20552;-67
2021/09/04 18:42:38;;;;;;;0.73;0.73;;;25.70;99.90;;;;;;20679139;28;20223;-65
2021/09/04 18:52:41;;;;;;;1.20;0.68;;;25.80;99.90;;;;;;20694420;28;20202;-65
2021/09/04 19:02:46;;;;;;;1.95;1.13;;;26.00;99.90;;;;;;20695413;28;20734;-64
2021/09/04 19:12:52;;;;;;;1.42;1.17;;;26.00;99.90;;;;;;20695330;28;20210;-65
2021/09/04 19:22:57;;;;;;;1.13;1.00;;;26.00;99.90;;;;;;20694643;28;20249;-66
2021/09/04 19:33:03;;;;;;;0.73;0.63;;;26.10;99.90;;;;;;20677319;28;20974;-66
2021/09/04 19:43:08;;;;;;;1.05;0.95;;;25.90;99.90;;;;;;20594321;28;20551;-65
2021/09/04 19:53:12;;;;;;;1.23;1.13;;;25.80;99.90;;;;;;20611416;28;20265;-66
2021/09/04 20:03:17;;;;;;;3.35;1.20;;;25.60;99.90;;;;;;20638789;28;20747;-64
2021/09/04 20:13:21;;;;;;;1.80;1.50;;;25.40;99.90;;;;;;20674384;28;20286;-66
2021/09/04 20:23:26;;;;;;;2.00;1.20;;;25.10;99.90;;;;;;20691748;28;20229;-66
2021/09/04 20:33:30;;;;;;;1.00;0.68;;;25.20;99.90;;;;;;20675612;28;21095;-66
2021/09/04 20:43:35;;;;;;;2.05;1.33;;;25.10;99.90;;;;;;20674370;28;20222;-66
2021/09/04 20:53:40;;;;;;;2.70;1.77;;;24.90;99.90;;;;;;20706001;28;20198;-64
2021/09/04 21:03:44;;;;;;;1.30;1.20;;;24.70;99.90;;;;;;20707442;28;20234;-67
2021/09/04 21:13:48;;;;;;;3.85;1.52;;;24.60;99.90;;;;;;20697254;28;20199;-65
2021/09/04 21:23:53;;;;;;;1.38;0.50;;;24.50;99.90;;;;;;20706690;28;20242;-64
2021/09/04 21:33:57;;;;;;;4.03;1.05;;;24.40;99.90;;;;;;20677307;28;20206;-63
2021/09/04 21:44:02;;;;;;;1.25;0.90;;;24.00;99.90;;;;;;20622144;28;20289;-65
2021/09/04 21:54:05;;;;;;;3.08;0.65;;;23.70;99.90;;;;;;20622161;28;20349;-63
2021/09/04 22:04:11;;;;;;;3.40;1.17;;;23.60;99.90;;;;;;20658847;28;20227;-64
2021/09/04 22:14:14;;;;;;;0.75;0.75;;;23.40;99.90;;;;;;20700442;28;20202;-66
2021/09/04 22:24:39;;;;;;;1.38;1.27;;;23.40;99.90;;;;;;20699793;28;20223;-64
2021/09/04 22:34:46;;;;;;;1.00;0.82;;;23.10;99.90;;;;;;20698015;28;20202;-64
2021/09/04 22:44:52;;;;;;;1.38;1.23;;;23.10;99.90;;;;;;20681306;28;20245;-62
2021/09/04 22:54:56;;;;;;;17.48;1.17;;;23.10;99.90;;;;;;20694874;28;20191;-64
2021/09/04 23:05:01;;;;;;;1.02;0.70;;;23.40;99.90;;;;;;20695336;28;20591;-63
2021/09/04 23:15:06;;;;;;;1.13;1.08;;;23.40;99.90;;;;;;20696428;28;20214;-64
2021/09/04 23:25:14;;;;;;;2.17;0.77;;;23.20;99.90;;;;;;20694831;28;20996;-64
2021/09/04 23:35:19;;;;;;;2.25;1.60;;;23.20;99.90;;;;;;20657900;28;20187;-63
2021/09/04 23:45:24;;;;;;;0.47;0.47;;;23.10;99.90;;;;;;20614895;28;20711;-64
2021/09/04 23:55:27;;;;;;;1.25;0.82;;;23.00;99.90;;;;;;20610027;28;20203;-65
